sensor_id;sensor_type;location;lat;lon;timestamp;P1;durP1;ratioP1;P2;durP2;ratioP2
75926;SDS011;64605;48.296;16.416;2023-05-01T00:00:07;10.35;;;6.03;;
75926;SDS011;64605;48.296;16.416;2023-05-01T00:02:34;9.02;;;5.95;;
75926;SDS011;64605;48.296;16.416;2023-05-01T00:05:01;9.63;;;5.82;;
75926;SDS011;64605;48.296;16.416;2023-05-01T00:07:27;9.35;;;5.97;;
75926;SDS011;64605;48.296;16.416;2023-05-01T00:09:56;8.48;;;5.82;;
75926;SDS011;64605;48.296;16.416;2023-05-01T00:12:22;10.77;;;6.18;;
75926;SDS011;64605;48.296;16.416;2023-05-01T00:14:48;8.68;;;5.80;;
75926;SDS011;64605;48.296;16.416;2023-05-01T00:17:13;9.55;;;5.78;;
75926;SDS011;64605;48.296;16.416;2023-05-01T00:19:39;7.57;;;5.82;;
75926;SDS011;64605;48.296;16.416;2023-05-01T00:22:05;8.50;;;6.18;;
75926;SDS011;64605;48.296;16.416;2023-05-01T00:24:30;7.93;;;6.13;;
75926;SDS011;64605;48.296;16.416;2023-05-01T00:26:56;10.10;;;6.80;;
75926;SDS011;64605;48.296;16.416;2023-05-01T00:29:22;9.23;;;5.95;;
75926;SDS011;64605;48.296;16.416;2023-05-01T00:31:48;7.20;;;5.43;;
75926;SDS011;64605;48.296;16.416;2023-05-01T00:34:13;7.28;;;5.63;;
75926;SDS011;64605;48.296;16.416;2023-05-01T00:36:39;10.60;;;6.45;;
75926;SDS011;64605;48.296;16.416;2023-05-01T00:39:05;8.73;;;5.88;;
75926;SDS011;64605;48.296;16.416;2023-05-01T00:41:34;8.55;;;5.70;;
75926;SDS011;64605;48.296;16.416;2023-05-01T00:44:00;10.93;;;6.82;;
75926;SDS011;64605;48.296;16.416;2023-05-01T00:46:26;10.73;;;6.47;;
75926;SDS011;64605;48.296;16.416;2023-05-01T00:48:54;9.93;;;5.63;;
75926;SDS011;64605;48.296;16.416;2023-05-01T00:51:21;9.23;;;6.15;;
75926;SDS011;64605;48.296;16.416;2023-05-01T00:53:47;10.45;;;5.65;;
75926;SDS011;64605;48.296;16.416;2023-05-01T00:56:14;9.73;;;6.30;;
75926;SDS011;64605;48.296;16.416;2023-05-01T00:58:40;8.27;;;6.25;;
75926;SDS011;64605;48.296;16.416;2023-05-01T01:01:06;12.15;;;6.35;;
75926;SDS011;64605;48.296;16.416;2023-05-01T01:03:35;9.45;;;6.03;;
75926;SDS011;64605;48.296;16.416;2023-05-01T01:11:55;11.07;;;6.20;;
75926;SDS011;64605;48.296;16.416;2023-05-01T01:14:32;10.50;;;6.32;;
75926;SDS011;64605;48.296;16.416;2023-05-01T01:17:27;6.82;;;5.70;;
75926;SDS011;64605;48.296;16.416;2023-05-01T01:20:03;7.97;;;5.85;;
75926;SDS011;64605;48.296;16.416;2023-05-01T01:22:53;11.57;;;6.95;;
75926;SDS011;64605;48.296;16.416;2023-05-01T01:29:02;11.07;;;6.57;;
75926;SDS011;64605;48.296;16.416;2023-05-01T01:34:46;8.80;;;6.15;;
75926;SDS011;64605;48.296;16.416;2023-05-01T01:37:19;9.38;;;6.85;;
75926;SDS011;64605;48.296;16.416;2023-05-01T01:39:54;9.20;;;6.15;;
75926;SDS011;64605;48.296;16.416;2023-05-01T01:42:35;11.50;;;6.45;;
75926;SDS011;64605;48.296;16.416;2023-05-01T01:45:06;8.50;;;5.88;;
75926;SDS011;64605;48.296;16.416;2023-05-01T01:47:39;11.02;;;6.82;;
75926;SDS011;64605;48.296;16.416;2023-05-01T01:50:06;9.98;;;6.68;;
75926;SDS011;64605;48.296;16.416;2023-05-01T01:52:34;8.98;;;6.05;;
75926;SDS011;64605;48.296;16.416;2023-05-01T01:55:04;11.60;;;6.35;;
75926;SDS011;64605;48.296;16.416;2023-05-01T01:57:33;10.50;;;6.30;;
75926;SDS011;64605;48.296;16.416;2023-05-01T02:00:04;15.18;;;5.80;;
75926;SDS011;64605;48.296;16.416;2023-05-01T02:02:35;9.38;;;6.18;;
75926;SDS011;64605;48.296;16.416;2023-05-01T02:05:04;7.20;;;5.97;;
75926;SDS011;64605;48.296;16.416;2023-05-01T02:07:36;9.20;;;6.65;;
75926;SDS011;64605;48.296;16.416;2023-05-01T02:10:04;10.60;;;5.72;;
75926;SDS011;64605;48.296;16.416;2023-05-01T02:12:31;11.70;;;5.80;;
75926;SDS011;64605;48.296;16.416;2023-05-01T02:14:58;10.00;;;6.22;;
75926;SDS011;64605;48.296;16.416;2023-05-01T02:17:24;7.38;;;6.32;;
75926;SDS011;64605;48.296;16.416;2023-05-01T02:19:52;9.18;;;6.03;;
75926;SDS011;64605;48.296;16.416;2023-05-01T02:22:20;11.38;;;6.78;;
75926;SDS011;64605;48.296;16.416;2023-05-01T02:24:46;11.88;;;6.97;;
75926;SDS011;64605;48.296;16.416;2023-05-01T02:27:14;9.18;;;6.63;;
75926;SDS011;64605;48.296;16.416;2023-05-01T02:29:47;10.30;;;7.45;;
75926;SDS011;64605;48.296;16.416;2023-05-01T02:32:12;9.20;;;6.30;;
75926;SDS011;64605;48.296;16.416;2023-05-01T02:34:38;10.85;;;6.35;;
75926;SDS011;64605;48.296;16.416;2023-05-01T02:37:05;10.32;;;6.65;;
75926;SDS011;64605;48.296;16.416;2023-05-01T02:39:31;8.07;;;6.53;;
75926;SDS011;64605;48.296;16.416;2023-05-01T02:41:58;10.90;;;6.95;;
75926;SDS011;64605;48.296;16.416;2023-05-01T02:44:27;12.43;;;6.78;;
75926;SDS011;64605;48.296;16.416;2023-05-01T02:46:56;9.48;;;6.88;;
75926;SDS011;64605;48.296;16.416;2023-05-01T02:49:24;8.48;;;6.38;;
75926;SDS011;64605;48.296;16.416;2023-05-01T02:51:50;11.55;;;6.97;;
75926;SDS011;64605;48.296;16.416;2023-05-01T02:54:17;12.70;;;7.50;;
75926;SDS011;64605;48.296;16.416;2023-05-01T02:56:43;10.13;;;6.57;;
75926;SDS011;64605;48.296;16.416;2023-05-01T02:59:09;8.60;;;6.43;;
75926;SDS011;64605;48.296;16.416;2023-05-01T03:01:34;10.15;;;6.63;;
75926;SDS011;64605;48.296;16.416;2023-05-01T03:04:00;14.65;;;7.22;;
75926;SDS011;64605;48.296;16.416;2023-05-01T03:06:26;7.75;;;6.65;;
75926;SDS011;64605;48.296;16.416;2023-05-01T03:08:53;9.85;;;6.22;;
75926;SDS011;64605;48.296;16.416;2023-05-01T03:11:18;13.55;;;7.22;;
75926;SDS011;64605;48.296;16.416;2023-05-01T03:13:45;7.35;;;6.55;;
75926;SDS011;64605;48.296;16.416;2023-05-01T03:16:11;9.63;;;7.05;;
75926;SDS011;64605;48.296;16.416;2023-05-01T03:18:37;8.98;;;7.00;;
75926;SDS011;64605;48.296;16.416;2023-05-01T03:21:02;11.20;;;7.30;;
75926;SDS011;64605;48.296;16.416;2023-05-01T03:23:28;11.60;;;6.95;;
75926;SDS011;64605;48.296;16.416;2023-05-01T03:25:54;8.45;;;7.20;;
75926;SDS011;64605;48.296;16.416;2023-05-01T03:28:19;11.25;;;6.25;;
75926;SDS011;64605;48.296;16.416;2023-05-01T03:30:48;14.70;;;6.82;;
75926;SDS011;64605;48.296;16.416;2023-05-01T03:33:15;10.05;;;7.65;;
75926;SDS011;64605;48.296;16.416;2023-05-01T03:35:41;11.38;;;6.95;;
75926;SDS011;64605;48.296;16.416;2023-05-01T03:38:06;9.05;;;7.00;;
75926;SDS011;64605;48.296;16.416;2023-05-01T03:40:32;10.20;;;6.13;;
75926;SDS011;64605;48.296;16.416;2023-05-01T03:42:58;11.73;;;7.68;;
75926;SDS011;64605;48.296;16.416;2023-05-01T03:45:24;10.75;;;7.55;;
75926;SDS011;64605;48.296;16.416;2023-05-01T03:47:49;9.52;;;6.88;;
75926;SDS011;64605;48.296;16.416;2023-05-01T03:50:15;13.00;;;7.38;;
75926;SDS011;64605;48.296;16.416;2023-05-01T03:52:40;10.48;;;6.90;;
75926;SDS011;64605;48.296;16.416;2023-05-01T03:55:06;11.60;;;6.88;;
75926;SDS011;64605;48.296;16.416;2023-05-01T03:57:32;13.35;;;7.05;;
75926;SDS011;64605;48.296;16.416;2023-05-01T03:59:58;10.80;;;7.53;;
75926;SDS011;64605;48.296;16.416;2023-05-01T04:02:24;8.90;;;6.38;;
75926;SDS011;64605;48.296;16.416;2023-05-01T04:04:50;7.93;;;5.68;;
75926;SDS011;64605;48.296;16.416;2023-05-01T04:07:15;10.90;;;6.07;;
75926;SDS011;64605;48.296;16.416;2023-05-01T04:09:41;9.65;;;6.25;;
75926;SDS011;64605;48.296;16.416;2023-05-01T04:12:07;9.05;;;6.72;;
75926;SDS011;64605;48.296;16.416;2023-05-01T04:14:33;10.80;;;6.32;;
75926;SDS011;64605;48.296;16.416;2023-05-01T04:16:59;10.80;;;6.35;;
75926;SDS011;64605;48.296;16.416;2023-05-01T04:19:24;10.50;;;6.13;;
75926;SDS011;64605;48.296;16.416;2023-05-01T04:21:50;10.48;;;6.65;;
75926;SDS011;64605;48.296;16.416;2023-05-01T04:24:16;11.55;;;6.82;;
75926;SDS011;64605;48.296;16.416;2023-05-01T04:26:42;10.57;;;6.80;;
75926;SDS011;64605;48.296;16.416;2023-05-01T04:29:07;9.07;;;6.25;;
75926;SDS011;64605;48.296;16.416;2023-05-01T04:31:33;10.88;;;6.55;;
75926;SDS011;64605;48.296;16.416;2023-05-01T04:33:59;7.47;;;6.50;;
75926;SDS011;64605;48.296;16.416;2023-05-01T04:36:25;8.85;;;6.43;;
75926;SDS011;64605;48.296;16.416;2023-05-01T04:38:51;11.18;;;5.95;;
75926;SDS011;64605;48.296;16.416;2023-05-01T04:41:17;8.75;;;6.25;;
75926;SDS011;64605;48.296;16.416;2023-05-01T04:43:43;10.48;;;6.75;;
75926;SDS011;64605;48.296;16.416;2023-05-01T04:46:09;10.30;;;6.13;;
75926;SDS011;64605;48.296;16.416;2023-05-01T04:48:34;9.32;;;6.78;;
75926;SDS011;64605;48.296;16.416;2023-05-01T04:51:00;8.68;;;5.82;;
75926;SDS011;64605;48.296;16.416;2023-05-01T04:53:28;8.18;;;5.78;;
75926;SDS011;64605;48.296;16.416;2023-05-01T04:55:53;10.13;;;6.22;;
75926;SDS011;64605;48.296;16.416;2023-05-01T04:58:19;8.50;;;6.18;;
75926;SDS011;64605;48.296;16.416;2023-05-01T05:00:45;8.55;;;5.75;;
75926;SDS011;64605;48.296;16.416;2023-05-01T05:03:10;10.35;;;6.25;;
75926;SDS011;64605;48.296;16.416;2023-05-01T05:05:36;11.98;;;6.75;;
75926;SDS011;64605;48.296;16.416;2023-05-01T05:08:02;9.98;;;6.20;;
75926;SDS011;64605;48.296;16.416;2023-05-01T05:10:27;8.18;;;6.13;;
75926;SDS011;64605;48.296;16.416;2023-05-01T05:12:53;7.63;;;5.97;;
75926;SDS011;64605;48.296;16.416;2023-05-01T05:15:19;9.88;;;6.30;;
75926;SDS011;64605;48.296;16.416;2023-05-01T05:17:45;13.23;;;6.30;;
75926;SDS011;64605;48.296;16.416;2023-05-01T05:20:11;10.13;;;5.82;;
75926;SDS011;64605;48.296;16.416;2023-05-01T05:22:36;8.32;;;5.90;;
75926;SDS011;64605;48.296;16.416;2023-05-01T05:25:03;10.70;;;5.88;;
75926;SDS011;64605;48.296;16.416;2023-05-01T05:27:30;9.85;;;5.72;;
75926;SDS011;64605;48.296;16.416;2023-05-01T05:30:00;9.02;;;6.35;;
75926;SDS011;64605;48.296;16.416;2023-05-01T05:32:26;13.25;;;6.28;;
75926;SDS011;64605;48.296;16.416;2023-05-01T05:34:53;11.10;;;6.90;;
75926;SDS011;64605;48.296;16.416;2023-05-01T05:37:19;9.95;;;6.13;;
75926;SDS011;64605;48.296;16.416;2023-05-01T05:39:44;10.43;;;7.18;;
75926;SDS011;64605;48.296;16.416;2023-05-01T05:42:10;11.13;;;6.18;;
75926;SDS011;64605;48.296;16.416;2023-05-01T05:44:35;12.48;;;6.38;;
75926;SDS011;64605;48.296;16.416;2023-05-01T05:47:01;9.77;;;6.32;;
75926;SDS011;64605;48.296;16.416;2023-05-01T05:49:27;9.20;;;5.45;;
75926;SDS011;64605;48.296;16.416;2023-05-01T05:51:52;9.10;;;6.40;;
75926;SDS011;64605;48.296;16.416;2023-05-01T05:54:18;11.00;;;5.60;;
75926;SDS011;64605;48.296;16.416;2023-05-01T05:56:43;10.20;;;6.40;;
75926;SDS011;64605;48.296;16.416;2023-05-01T05:59:09;11.73;;;6.63;;
75926;SDS011;64605;48.296;16.416;2023-05-01T06:01:35;11.20;;;5.78;;
75926;SDS011;64605;48.296;16.416;2023-05-01T06:04:01;10.43;;;5.88;;
75926;SDS011;64605;48.296;16.416;2023-05-01T06:06:27;11.27;;;6.15;;
75926;SDS011;64605;48.296;16.416;2023-05-01T06:08:53;9.75;;;5.80;;
75926;SDS011;64605;48.296;16.416;2023-05-01T06:11:18;10.10;;;5.70;;
75926;SDS011;64605;48.296;16.416;2023-05-01T06:13:45;11.88;;;6.47;;
75926;SDS011;64605;48.296;16.416;2023-05-01T06:16:11;7.97;;;5.50;;
75926;SDS011;64605;48.296;16.416;2023-05-01T06:18:37;11.18;;;5.70;;
75926;SDS011;64605;48.296;16.416;2023-05-01T06:21:02;9.07;;;5.55;;
75926;SDS011;64605;48.296;16.416;2023-05-01T06:23:28;11.35;;;6.03;;
75926;SDS011;64605;48.296;16.416;2023-05-01T06:25:54;11.05;;;6.60;;
75926;SDS011;64605;48.296;16.416;2023-05-01T06:28:19;9.13;;;6.00;;
75926;SDS011;64605;48.296;16.416;2023-05-01T06:30:45;10.27;;;6.50;;
75926;SDS011;64605;48.296;16.416;2023-05-01T06:33:11;12.93;;;6.38;;
75926;SDS011;64605;48.296;16.416;2023-05-01T06:35:40;8.13;;;6.53;;
75926;SDS011;64605;48.296;16.416;2023-05-01T06:38:05;10.13;;;5.72;;
75926;SDS011;64605;48.296;16.416;2023-05-01T06:40:31;9.07;;;5.40;;
75926;SDS011;64605;48.296;16.416;2023-05-01T06:42:59;9.20;;;6.22;;
75926;SDS011;64605;48.296;16.416;2023-05-01T06:45:28;11.15;;;6.30;;
75926;SDS011;64605;48.296;16.416;2023-05-01T06:47:54;7.20;;;5.72;;
75926;SDS011;64605;48.296;16.416;2023-05-01T06:50:19;9.95;;;6.10;;
75926;SDS011;64605;48.296;16.416;2023-05-01T06:52:45;11.52;;;6.38;;
75926;SDS011;64605;48.296;16.416;2023-05-01T06:55:11;9.43;;;5.82;;
75926;SDS011;64605;48.296;16.416;2023-05-01T06:57:36;10.80;;;6.80;;
75926;SDS011;64605;48.296;16.416;2023-05-01T07:00:04;8.65;;;6.53;;
75926;SDS011;64605;48.296;16.416;2023-05-01T07:02:30;10.15;;;5.90;;
75926;SDS011;64605;48.296;16.416;2023-05-01T07:04:56;11.15;;;5.97;;
75926;SDS011;64605;48.296;16.416;2023-05-01T07:07:22;8.20;;;6.05;;
75926;SDS011;64605;48.296;16.416;2023-05-01T07:09:48;7.75;;;5.78;;
75926;SDS011;64605;48.296;16.416;2023-05-01T07:12:13;10.88;;;6.05;;
75926;SDS011;64605;48.296;16.416;2023-05-01T07:14:39;8.27;;;5.95;;
75926;SDS011;64605;48.296;16.416;2023-05-01T07:17:05;9.05;;;6.30;;
75926;SDS011;64605;48.296;16.416;2023-05-01T07:19:31;9.50;;;6.50;;
75926;SDS011;64605;48.296;16.416;2023-05-01T07:21:57;9.13;;;6.25;;
75926;SDS011;64605;48.296;16.416;2023-05-01T07:24:22;10.27;;;5.97;;
75926;SDS011;64605;48.296;16.416;2023-05-01T07:26:48;10.27;;;5.68;;
75926;SDS011;64605;48.296;16.416;2023-05-01T07:29:14;9.23;;;6.10;;
75926;SDS011;64605;48.296;16.416;2023-05-01T07:31:40;9.10;;;6.13;;
75926;SDS011;64605;48.296;16.416;2023-05-01T07:34:06;9.73;;;6.00;;
75926;SDS011;64605;48.296;16.416;2023-05-01T07:36:32;8.93;;;6.50;;
75926;SDS011;64605;48.296;16.416;2023-05-01T07:38:58;8.95;;;5.90;;
75926;SDS011;64605;48.296;16.416;2023-05-01T07:41:24;10.55;;;6.35;;
75926;SDS011;64605;48.296;16.416;2023-05-01T07:43:49;10.27;;;5.90;;
75926;SDS011;64605;48.296;16.416;2023-05-01T07:46:15;6.88;;;6.18;;
75926;SDS011;64605;48.296;16.416;2023-05-01T07:48:41;9.23;;;7.00;;
75926;SDS011;64605;48.296;16.416;2023-05-01T07:51:06;8.02;;;6.55;;
75926;SDS011;64605;48.296;16.416;2023-05-01T07:53:32;7.97;;;5.90;;
75926;SDS011;64605;48.296;16.416;2023-05-01T07:56:05;12.63;;;7.03;;
75926;SDS011;64605;48.296;16.416;2023-05-01T07:58:32;9.90;;;6.35;;
75926;SDS011;64605;48.296;16.416;2023-05-01T08:00:58;10.02;;;6.55;;
75926;SDS011;64605;48.296;16.416;2023-05-01T08:03:26;8.95;;;6.97;;
75926;SDS011;64605;48.296;16.416;2023-05-01T08:05:53;12.18;;;6.63;;
75926;SDS011;64605;48.296;16.416;2023-05-01T08:08:19;8.60;;;6.53;;
75926;SDS011;64605;48.296;16.416;2023-05-01T08:10:45;8.40;;;6.43;;
75926;SDS011;64605;48.296;16.416;2023-05-01T08:13:11;9.20;;;6.85;;
75926;SDS011;64605;48.296;16.416;2023-05-01T08:15:37;9.40;;;6.68;;
75926;SDS011;64605;48.296;16.416;2023-05-01T08:18:03;8.70;;;7.05;;
75926;SDS011;64605;48.296;16.416;2023-05-01T08:20:29;10.23;;;7.00;;
75926;SDS011;64605;48.296;16.416;2023-05-01T08:22:55;8.38;;;6.95;;
75926;SDS011;64605;48.296;16.416;2023-05-01T08:25:21;9.02;;;6.70;;
75926;SDS011;64605;48.296;16.416;2023-05-01T08:27:46;8.70;;;6.80;;
75926;SDS011;64605;48.296;16.416;2023-05-01T08:30:13;7.20;;;6.50;;
75926;SDS011;64605;48.296;16.416;2023-05-01T08:32:38;7.55;;;6.70;;
75926;SDS011;64605;48.296;16.416;2023-05-01T08:35:04;8.80;;;6.97;;
75926;SDS011;64605;48.296;16.416;2023-05-01T08:37:30;7.72;;;6.90;;
75926;SDS011;64605;48.296;16.416;2023-05-01T08:39:56;8.48;;;6.53;;
75926;SDS011;64605;48.296;16.416;2023-05-01T08:42:22;8.95;;;7.47;;
75926;SDS011;64605;48.296;16.416;2023-05-01T08:44:47;10.13;;;6.55;;
75926;SDS011;64605;48.296;16.416;2023-05-01T08:47:15;9.00;;;6.82;;
75926;SDS011;64605;48.296;16.416;2023-05-01T08:49:42;10.00;;;7.57;;
75926;SDS011;64605;48.296;16.416;2023-05-01T08:52:12;11.27;;;7.47;;
75926;SDS011;64605;48.296;16.416;2023-05-01T08:54:41;7.75;;;6.93;;
75926;SDS011;64605;48.296;16.416;2023-05-01T08:57:09;10.13;;;7.35;;
75926;SDS011;64605;48.296;16.416;2023-05-01T08:59:36;7.88;;;7.07;;
75926;SDS011;64605;48.296;16.416;2023-05-01T09:02:03;8.23;;;7.43;;
75926;SDS011;64605;48.296;16.416;2023-05-01T09:04:31;9.07;;;8.13;;
75926;SDS011;64605;48.296;16.416;2023-05-01T09:06:59;7.35;;;6.57;;
75926;SDS011;64605;48.296;16.416;2023-05-01T09:09:29;8.57;;;6.47;;
75926;SDS011;64605;48.296;16.416;2023-05-01T09:11:55;8.02;;;6.82;;
75926;SDS011;64605;48.296;16.416;2023-05-01T09:14:27;7.53;;;6.82;;
75926;SDS011;64605;48.296;16.416;2023-05-01T09:16:55;7.40;;;6.70;;
75926;SDS011;64605;48.296;16.416;2023-05-01T09:19:21;6.93;;;6.20;;
75926;SDS011;64605;48.296;16.416;2023-05-01T09:21:46;7.28;;;6.63;;
75926;SDS011;64605;48.296;16.416;2023-05-01T09:24:12;7.10;;;6.40;;
75926;SDS011;64605;48.296;16.416;2023-05-01T09:26:38;7.80;;;6.15;;
75926;SDS011;64605;48.296;16.416;2023-05-01T09:29:06;7.18;;;5.82;;
75926;SDS011;64605;48.296;16.416;2023-05-01T09:31:34;6.82;;;6.13;;
75926;SDS011;64605;48.296;16.416;2023-05-01T09:34:01;10.80;;;5.18;;
75926;SDS011;64605;48.296;16.416;2023-05-01T09:36:28;5.95;;;3.95;;
75926;SDS011;64605;48.296;16.416;2023-05-01T09:38:58;5.55;;;3.50;;
75926;SDS011;64605;48.296;16.416;2023-05-01T09:41:25;6.78;;;3.97;;
75926;SDS011;64605;48.296;16.416;2023-05-01T09:43:51;7.28;;;5.53;;
75926;SDS011;64605;48.296;16.416;2023-05-01T09:46:19;6.35;;;3.92;;
75926;SDS011;64605;48.296;16.416;2023-05-01T09:49:18;4.78;;;3.65;;
75926;SDS011;64605;48.296;16.416;2023-05-01T09:51:37;5.43;;;3.80;;
75926;SDS011;64605;48.296;16.416;2023-05-01T09:54:03;4.60;;;4.03;;
75926;SDS011;64605;48.296;16.416;2023-05-01T09:56:31;7.07;;;3.90;;
75926;SDS011;64605;48.296;16.416;2023-05-01T09:58:58;6.47;;;4.03;;
75926;SDS011;64605;48.296;16.416;2023-05-01T10:01:42;5.07;;;4.47;;
75926;SDS011;64605;48.296;16.416;2023-05-01T10:04:10;4.78;;;3.75;;
75926;SDS011;64605;48.296;16.416;2023-05-01T10:06:36;5.03;;;4.57;;
75926;SDS011;64605;48.296;16.416;2023-05-01T10:09:03;8.43;;;5.03;;
75926;SDS011;64605;48.296;16.416;2023-05-01T10:14:20;4.53;;;3.70;;
75926;SDS011;64605;48.296;16.416;2023-05-01T10:16:47;7.95;;;4.30;;
75926;SDS011;64605;48.296;16.416;2023-05-01T10:19:13;6.40;;;4.70;;
75926;SDS011;64605;48.296;16.416;2023-05-01T10:21:41;5.18;;;4.40;;
75926;SDS011;64605;48.296;16.416;2023-05-01T10:24:07;7.47;;;5.05;;
75926;SDS011;64605;48.296;16.416;2023-05-01T10:26:34;8.45;;;5.05;;
75926;SDS011;64605;48.296;16.416;2023-05-01T10:29:00;7.80;;;4.45;;
75926;SDS011;64605;48.296;16.416;2023-05-01T10:31:27;5.85;;;5.00;;
75926;SDS011;64605;48.296;16.416;2023-05-01T10:33:54;8.68;;;4.38;;
75926;SDS011;64605;48.296;16.416;2023-05-01T10:36:43;6.13;;;4.43;;
75926;SDS011;64605;48.296;16.416;2023-05-01T10:42:03;5.93;;;5.03;;
75926;SDS011;64605;48.296;16.416;2023-05-01T10:44:38;7.18;;;4.88;;
75926;SDS011;64605;48.296;16.416;2023-05-01T10:50:04;4.70;;;4.18;;
75926;SDS011;64605;48.296;16.416;2023-05-01T10:55:43;7.30;;;5.03;;
75926;SDS011;64605;48.296;16.416;2023-05-01T10:58:10;8.27;;;5.10;;
75926;SDS011;64605;48.296;16.416;2023-05-01T11:00:37;6.03;;;5.03;;
75926;SDS011;64605;48.296;16.416;2023-05-01T11:08:37;6.45;;;4.88;;
75926;SDS011;64605;48.296;16.416;2023-05-01T11:11:43;7.57;;;5.03;;
75926;SDS011;64605;48.296;16.416;2023-05-01T11:14:05;6.55;;;5.40;;
75926;SDS011;64605;48.296;16.416;2023-05-01T11:21:29;9.32;;;4.90;;
75926;SDS011;64605;48.296;16.416;2023-05-01T11:23:59;6.43;;;4.53;;
75926;SDS011;64605;48.296;16.416;2023-05-01T11:26:26;6.82;;;4.93;;
75926;SDS011;64605;48.296;16.416;2023-05-01T11:28:53;5.47;;;4.72;;
75926;SDS011;64605;48.296;16.416;2023-05-01T11:31:21;6.88;;;5.28;;
75926;SDS011;64605;48.296;16.416;2023-05-01T11:33:46;6.82;;;4.20;;
75926;SDS011;64605;48.296;16.416;2023-05-01T11:36:12;6.70;;;4.30;;
75926;SDS011;64605;48.296;16.416;2023-05-01T11:38:48;6.75;;;4.38;;
75926;SDS011;64605;48.296;16.416;2023-05-01T11:41:18;7.30;;;4.60;;
75926;SDS011;64605;48.296;16.416;2023-05-01T11:43:54;8.40;;;4.40;;
75926;SDS011;64605;48.296;16.416;2023-05-01T11:46:30;5.57;;;3.90;;
75926;SDS011;64605;48.296;16.416;2023-05-01T11:48:57;6.07;;;4.15;;
75926;SDS011;64605;48.296;16.416;2023-05-01T11:51:25;6.95;;;4.15;;
75926;SDS011;64605;48.296;16.416;2023-05-01T11:56:28;4.80;;;4.03;;
75926;SDS011;64605;48.296;16.416;2023-05-01T11:58:56;5.28;;;3.75;;
75926;SDS011;64605;48.296;16.416;2023-05-01T12:01:32;6.30;;;4.47;;
75926;SDS011;64605;48.296;16.416;2023-05-01T12:03:59;8.68;;;3.67;;
75926;SDS011;64605;48.296;16.416;2023-05-01T12:06:35;5.70;;;4.07;;
75926;SDS011;64605;48.296;16.416;2023-05-01T12:09:05;8.20;;;3.58;;
75926;SDS011;64605;48.296;16.416;2023-05-01T12:11:32;4.88;;;3.10;;
75926;SDS011;64605;48.296;16.416;2023-05-01T12:13:58;5.05;;;3.13;;
75926;SDS011;64605;48.296;16.416;2023-05-01T12:16:24;4.63;;;3.47;;
75926;SDS011;64605;48.296;16.416;2023-05-01T12:18:51;6.13;;;3.30;;
75926;SDS011;64605;48.296;16.416;2023-05-01T12:21:17;5.40;;;3.13;;
75926;SDS011;64605;48.296;16.416;2023-05-01T12:23:44;3.97;;;3.20;;
75926;SDS011;64605;48.296;16.416;2023-05-01T12:26:22;7.43;;;3.40;;
75926;SDS011;64605;48.296;16.416;2023-05-01T12:28:55;4.00;;;2.78;;
75926;SDS011;64605;48.296;16.416;2023-05-01T12:31:23;3.60;;;2.85;;
75926;SDS011;64605;48.296;16.416;2023-05-01T12:34:00;3.95;;;2.83;;
75926;SDS011;64605;48.296;16.416;2023-05-01T12:36:28;5.00;;;2.95;;
75926;SDS011;64605;48.296;16.416;2023-05-01T12:41:35;3.85;;;2.90;;
75926;SDS011;64605;48.296;16.416;2023-05-01T12:44:01;4.40;;;2.83;;
75926;SDS011;64605;48.296;16.416;2023-05-01T12:46:27;5.97;;;3.00;;
75926;SDS011;64605;48.296;16.416;2023-05-01T12:48:53;5.25;;;3.05;;
75926;SDS011;64605;48.296;16.416;2023-05-01T12:51:20;3.50;;;2.97;;
75926;SDS011;64605;48.296;16.416;2023-05-01T12:53:46;6.22;;;2.88;;
75926;SDS011;64605;48.296;16.416;2023-05-01T12:56:20;6.68;;;2.80;;
75926;SDS011;64605;48.296;16.416;2023-05-01T12:58:47;5.03;;;3.20;;
75926;SDS011;64605;48.296;16.416;2023-05-01T13:01:22;2.70;;;2.17;;
75926;SDS011;64605;48.296;16.416;2023-05-01T13:03:49;3.60;;;2.67;;
75926;SDS011;64605;48.296;16.416;2023-05-01T13:06:15;5.22;;;2.70;;
75926;SDS011;64605;48.296;16.416;2023-05-01T13:08:41;3.65;;;2.63;;
75926;SDS011;64605;48.296;16.416;2023-05-01T13:16:10;3.38;;;2.80;;
75926;SDS011;64605;48.296;16.416;2023-05-01T13:18:46;4.43;;;2.42;;
75926;SDS011;64605;48.296;16.416;2023-05-01T13:21:18;3.17;;;2.50;;
75926;SDS011;64605;48.296;16.416;2023-05-01T13:23:55;4.15;;;2.47;;
75926;SDS011;64605;48.296;16.416;2023-05-01T13:26:28;3.83;;;2.70;;
75926;SDS011;64605;48.296;16.416;2023-05-01T13:28:56;3.17;;;2.60;;
75926;SDS011;64605;48.296;16.416;2023-05-01T13:31:24;3.53;;;2.40;;
75926;SDS011;64605;48.296;16.416;2023-05-01T13:33:50;4.13;;;2.30;;
75926;SDS011;64605;48.296;16.416;2023-05-01T13:36:17;3.90;;;2.80;;
75926;SDS011;64605;48.296;16.416;2023-05-01T13:38:47;5.88;;;2.65;;
75926;SDS011;64605;48.296;16.416;2023-05-01T13:41:15;5.63;;;2.50;;
75926;SDS011;64605;48.296;16.416;2023-05-01T13:43:43;4.68;;;2.40;;
75926;SDS011;64605;48.296;16.416;2023-05-01T13:46:10;2.60;;;2.20;;
75926;SDS011;64605;48.296;16.416;2023-05-01T13:48:40;3.63;;;2.78;;
75926;SDS011;64605;48.296;16.416;2023-05-01T13:51:07;7.47;;;2.78;;
75926;SDS011;64605;48.296;16.416;2023-05-01T13:53:33;2.63;;;2.40;;
75926;SDS011;64605;48.296;16.416;2023-05-01T13:56:03;4.20;;;2.55;;
75926;SDS011;64605;48.296;16.416;2023-05-01T13:58:29;3.63;;;2.65;;
75926;SDS011;64605;48.296;16.416;2023-05-01T14:00:55;4.75;;;2.65;;
75926;SDS011;64605;48.296;16.416;2023-05-01T14:03:21;2.35;;;2.15;;
75926;SDS011;64605;48.296;16.416;2023-05-01T14:05:47;2.78;;;2.40;;
75926;SDS011;64605;48.296;16.416;2023-05-01T14:08:13;5.15;;;2.50;;
75926;SDS011;64605;48.296;16.416;2023-05-01T14:10:39;6.03;;;2.83;;
75926;SDS011;64605;48.296;16.416;2023-05-01T14:13:05;3.67;;;2.28;;
75926;SDS011;64605;48.296;16.416;2023-05-01T14:15:34;3.80;;;2.63;;
75926;SDS011;64605;48.296;16.416;2023-05-01T14:18:04;3.30;;;2.40;;
75926;SDS011;64605;48.296;16.416;2023-05-01T14:20:31;4.93;;;3.00;;
75926;SDS011;64605;48.296;16.416;2023-05-01T14:22:57;3.92;;;2.90;;
75926;SDS011;64605;48.296;16.416;2023-05-01T14:25:30;4.53;;;2.42;;
75926;SDS011;64605;48.296;16.416;2023-05-01T14:27:59;7.60;;;2.60;;
75926;SDS011;64605;48.296;16.416;2023-05-01T14:30:28;2.55;;;2.35;;
75926;SDS011;64605;48.296;16.416;2023-05-01T14:33:01;4.72;;;2.42;;
75926;SDS011;64605;48.296;16.416;2023-05-01T14:35:32;2.97;;;2.55;;
75926;SDS011;64605;48.296;16.416;2023-05-01T14:38:12;3.85;;;2.20;;
75926;SDS011;64605;48.296;16.416;2023-05-01T14:40:39;4.38;;;2.67;;
75926;SDS011;64605;48.296;16.416;2023-05-01T14:43:08;3.03;;;2.60;;
75926;SDS011;64605;48.296;16.416;2023-05-01T14:45:36;3.17;;;2.40;;
75926;SDS011;64605;48.296;16.416;2023-05-01T14:48:05;3.25;;;2.40;;
75926;SDS011;64605;48.296;16.416;2023-05-01T14:50:31;3.35;;;2.47;;
75926;SDS011;64605;48.296;16.416;2023-05-01T14:52:57;4.85;;;2.63;;
75926;SDS011;64605;48.296;16.416;2023-05-01T14:55:28;4.40;;;2.80;;
75926;SDS011;64605;48.296;16.416;2023-05-01T14:57:56;3.38;;;2.40;;
75926;SDS011;64605;48.296;16.416;2023-05-01T15:00:22;3.05;;;2.50;;
75926;SDS011;64605;48.296;16.416;2023-05-01T15:02:48;3.45;;;2.20;;
75926;SDS011;64605;48.296;16.416;2023-05-01T15:05:15;4.10;;;2.50;;
75926;SDS011;64605;48.296;16.416;2023-05-01T15:07:41;3.58;;;2.40;;
75926;SDS011;64605;48.296;16.416;2023-05-01T15:10:07;2.85;;;2.10;;
75926;SDS011;64605;48.296;16.416;2023-05-01T15:12:34;2.40;;;2.20;;
75926;SDS011;64605;48.296;16.416;2023-05-01T15:15:00;2.97;;;2.40;;
75926;SDS011;64605;48.296;16.416;2023-05-01T15:17:26;3.00;;;2.40;;